E.r.brandenburg — A8SZ5 — position and weather

sailwx.info

Track history (hours):
 
Tides and Currents Weather Stations Pressure Air Temp Water Temp Dewpoint Dewpoint Depression Visibility Wind Speed Wind Dir Waves Ship Positions

E.r.brandenburg

Last reported at 2015-Jul-04 20:29 UTC. Time now 2015-Jul-05 09:32 UTC.
Position S 27°55' E 153°53'.

Length 292 m; draft 8.4 m.

Type: Ship. MMSI: 636091798.

Date/timePositionNaut miles runAvg speedWind from/ knotsBaromVisibWave heightAir tempDewpointWater temp
2015-Jul-04 20:29S 27°55' E 153°53'1 1.6
2015-Jul-04 19:32S 27°54' E 153°53'1 1.5
2015-Jul-04 18:32S 27°52' E 153°54'1 1.4
2015-Jul-04 17:32S 27°51' E 153°54'2 1.6
2015-Jul-04 16:32S 27°49' E 153°55'2 1.5
2015-Jul-04 15:32S 27°48' E 153°55'2 1.7
2015-Jul-04 14:32S 27°46' E 153°56'2 1.7
2015-Jul-04 13:17S 27°44' E 153°57'1 1.6
2015-Jul-04 12:32S 27°43' E 153°57'  
2015-Jul-01 23:22S 27°10' E 154°08'2 1.2
2015-Jul-01 21:22S 27°08' E 154°07'5 1.7
2015-Jul-01 18:10S 27°03' E 154°05'2 2.3
2015-Jul-01 17:30S 27°01' E 154°05'10 8.1
2015-Jul-01 16:17S 26°52' E 154°07'  
Track history (hours):
 
Tides and Currents Weather Stations Pressure Air Temp Water Temp Dewpoint Dewpoint Depression Visibility Wind Speed Wind Dir Waves Ship Positions

E.r.brandenburg

Last reported at 2015-Jul-04 20:29 UTC. Time now 2015-Jul-05 09:32 UTC.
Position S 27°55' E 153°53'.

Length 292 m; draft 8.4 m.

Type: Ship. MMSI: 636091798.

Date/timePositionNaut miles runAvg speedWind from/ knotsBaromVisibWave heightAir tempDewpointWater temp
2015-Jul-04 20:29S 27°55' E 153°53'1 1.6
2015-Jul-04 19:32S 27°54' E 153°53'1 1.5
2015-Jul-04 18:32S 27°52' E 153°54'1 1.4
2015-Jul-04 17:32S 27°51' E 153°54'2 1.6
2015-Jul-04 16:32S 27°49' E 153°55'2 1.5
2015-Jul-04 15:32S 27°48' E 153°55'2 1.7
2015-Jul-04 14:32S 27°46' E 153°56'2 1.7
2015-Jul-04 13:17S 27°44' E 153°57'1 1.6
2015-Jul-04 12:32S 27°43' E 153°57'  
2015-Jul-01 23:22S 27°10' E 154°08'2 1.2
2015-Jul-01 21:22S 27°08' E 154°07'5 1.7
2015-Jul-01 18:10S 27°03' E 154°05'2 2.3
2015-Jul-01 17:30S 27°01' E 154°05'10 8.1
2015-Jul-01 16:17S 26°52' E 154°07'  

Dump ship's entire track history